Cape Hatteras Naval Facility, North Carolina
Current Conditions -  °F | °C
As of 6:51 AM on Saturday 25 Oct 2014 (Local Time) from KHSE Reporting Station
Clear Clear  
Wind Chill: 54°   Ceiling: Unl
Heat Index: 54°   Visibility: 10mi
Dew Point: 53°   Wind: 5mph
Humidity: 97%   Direction: 320°NW
Pressure: 29.96"   Gusts: NA
Location:  35.2677°N, 75.5426°W
Report Text: KHSE 251051Z AUTO 32004KT 10SM CLR 12/12 A2996 RMK AO2 SLP146 T01220117 TSNO
Loading
Personal Weather Stations






























Interactive Weather Map New forecast layout! Learn more

10-Day Weather Forecast

Advertisements
Track Severe Weather on mobile